Time;durP1;ratioP1;P1;durP2;ratioP2;P2;SDS_P1;SDS_P2;PMS_P1;PMS_P2;Temp;Humidity;BMP_temperature;BMP_pressure;BME280_temperature;BME280_humidity;BME280_pressure;Samples;Min_cycle;Max_cycle;Signal;HPM_P1;HPM_P2
2022/10/24 00:00:25;;;;;;;3.72;0.95;;;14.80;99.90;;;;;;6212414;23;20031;-91
2022/10/24 00:02:51;;;;;;;2.13;0.80;;;14.80;99.90;;;;;;6195668;23;20016;-92
2022/10/24 00:05:16;;;;;;;2.60;0.70;;;14.80;99.90;;;;;;6195897;23;20020;-92
2022/10/24 00:07:42;;;;;;;2.03;0.60;;;14.80;99.90;;;;;;6152245;22;20341;-94
2022/10/24 00:10:11;;;;;;;1.50;0.68;;;14.80;99.90;;;;;;6194771;23;20025;-91
2022/10/24 00:12:37;;;;;;;3.42;0.65;;;14.80;99.90;;;;;;6170137;23;20343;-94
2022/10/24 00:15:05;;;;;;;2.92;0.68;;;14.80;99.90;;;;;;6170623;23;20026;-93
2022/10/24 00:17:31;;;;;;;2.08;0.80;;;14.80;99.90;;;;;;6145803;23;20019;-93
2022/10/24 00:19:59;;;;;;;2.30;0.80;;;14.80;99.90;;;;;;6167790;23;20042;-94
2022/10/24 00:22:26;;;;;;;2.15;0.73;;;14.80;99.90;;;;;;6170999;23;20297;-94
2022/10/24 00:24:53;;;;;;;1.52;0.60;;;14.80;99.90;;;;;;6171063;23;20065;-96
2022/10/24 00:27:19;;;;;;;1.88;0.80;;;14.80;99.90;;;;;;6145495;23;20018;-93
2022/10/24 00:29:45;;;;;;;2.08;0.70;;;14.80;99.90;;;;;;6171214;23;20015;-91
2022/10/24 00:32:11;;;;;;;3.95;0.82;;;14.80;99.90;;;;;;6152724;23;20054;-90
2022/10/24 00:34:43;;;;;;;1.77;0.60;;;14.80;99.90;;;;;;6115631;23;20019;-95
2022/10/24 00:37:08;;;;;;;1.38;0.50;;;14.80;99.90;;;;;;6208513;23;20023;-93
2022/10/24 00:39:34;;;;;;;2.00;0.60;;;14.80;99.90;;;;;;6170378;23;20018;-92
2022/10/24 00:42:00;;;;;;;1.88;0.70;;;14.80;99.90;;;;;;6169952;23;20080;-94
2022/10/24 00:44:32;;;;;;;2.10;0.60;;;14.70;99.90;;;;;;6170588;23;20019;-94
2022/10/24 00:47:11;;;;;;;3.08;0.55;;;14.80;99.90;;;;;;6194500;23;20076;-92
2022/10/24 00:50:00;;;;;;;1.52;0.50;;;14.80;99.90;;;;;;6194889;23;20023;-94
2022/10/24 00:55:14;;;;;;;1.07;0.40;;;14.70;99.90;;;;;;6276442;22;20019;-89
2022/10/24 00:57:48;;;;;;;3.08;1.05;;;14.70;99.90;;;;;;6223200;22;20259;-90
2022/10/24 01:00:46;;;;;;;1.85;0.50;;;14.80;99.90;;;;;;6225040;22;20027;-89
2022/10/24 01:03:29;;;;;;;3.00;0.40;;;14.70;99.90;;;;;;6225304;22;20016;-91
2022/10/24 01:20:15;;;;;;;3.13;0.43;;;14.70;99.90;;;;;;6228861;22;20028;-90
2022/10/24 01:23:09;;;;;;;2.00;0.50;;;14.60;99.90;;;;;;6175848;23;20016;-89
2022/10/24 01:26:21;;;;;;;1.80;0.88;;;14.60;99.90;;;;;;6169377;23;20084;-91
2022/10/24 01:29:15;;;;;;;2.60;0.60;;;14.60;99.90;;;;;;6067552;23;20402;-89
2022/10/24 01:31:44;;;;;;;2.17;0.95;;;14.50;99.90;;;;;;6067971;23;20038;-89
2022/10/24 01:34:19;;;;;;;1.27;0.40;;;14.50;99.90;;;;;;6067943;23;20521;-90
2022/10/24 01:37:03;;;;;;;2.17;0.60;;;14.50;99.90;;;;;;6169264;23;20130;-90
2022/10/24 01:39:36;;;;;;;4.32;0.70;;;14.50;99.90;;;;;;6169984;23;20313;-89
2022/10/24 01:46:05;;;;;;;0.45;0.30;;;14.50;99.90;;;;;;6094813;23;20033;-96
2022/10/24 01:48:39;;;;;;;3.42;0.57;;;14.50;99.90;;;;;;6146319;23;20069;-96
2022/10/24 01:51:07;;;;;;;2.40;0.50;;;14.50;99.90;;;;;;6171384;23;20042;-94
2022/10/24 01:53:34;;;;;;;1.73;0.47;;;14.50;99.90;;;;;;6171732;23;20335;-96
2022/10/24 01:56:03;;;;;;;2.10;0.60;;;14.60;99.90;;;;;;6170713;23;20022;-96
2022/10/24 01:58:31;;;;;;;1.35;0.50;;;14.50;99.90;;;;;;6170489;23;20018;-96
2022/10/24 02:01:18;;;;;;;1.90;0.60;;;14.60;99.90;;;;;;6147443;23;20048;-95
2022/10/24 02:03:51;;;;;;;1.27;0.50;;;14.60;99.90;;;;;;6171110;23;20026;-95
2022/10/24 02:06:28;;;;;;;1.85;0.80;;;14.60;99.90;;;;;;6171007;23;20044;-94
2022/10/24 02:09:04;;;;;;;2.08;0.90;;;14.70;99.90;;;;;;6171166;23;20022;-94
2022/10/24 02:11:33;;;;;;;1.88;0.70;;;14.70;99.90;;;;;;6171868;23;20037;-95
2022/10/24 02:14:05;;;;;;;2.45;0.60;;;14.70;99.90;;;;;;6171171;23;20053;-95
2022/10/24 02:16:31;;;;;;;2.45;0.60;;;14.80;99.90;;;;;;6171010;23;20018;-96
2022/10/24 02:18:57;;;;;;;;;;;14.80;99.90;;;;;;6171289;23;20105;-94
2022/10/24 02:21:52;;;;;;;2.42;0.60;;;14.80;99.90;;;;;;6171213;23;19975;-94
2022/10/24 02:24:27;;;;;;;1.40;0.68;;;14.80;99.90;;;;;;6170465;23;20378;-95
2022/10/24 02:27:07;;;;;;;2.55;0.68;;;14.90;99.90;;;;;;6169788;23;20348;-93
2022/10/24 02:29:46;;;;;;;2.80;0.70;;;14.90;99.90;;;;;;6069508;23;20037;-96
2022/10/24 02:33:11;;;;;;;1.27;0.55;;;14.90;99.90;;;;;;6170625;23;20076;-96
2022/10/24 02:36:03;;;;;;;2.05;0.60;;;14.90;99.90;;;;;;6107926;23;20017;-96
2022/10/24 02:38:36;;;;;;;2.85;0.75;;;14.90;99.90;;;;;;6122348;23;20049;-94
2022/10/24 02:41:06;;;;;;;1.50;0.50;;;14.90;99.90;;;;;;6175455;23;20018;-93
2022/10/24 02:57:25;;;;;;;2.42;0.70;;;14.90;99.90;;;;;;6278233;22;20024;-93
2022/10/24 02:59:52;;;;;;;1.70;0.70;;;14.90;99.90;;;;;;6226017;22;20030;-93
2022/10/24 03:02:21;;;;;;;2.35;0.63;;;14.90;99.90;;;;;;6226347;22;20016;-92
2022/10/24 03:04:54;;;;;;;2.30;0.70;;;14.90;99.90;;;;;;6226260;22;20445;-93
2022/10/24 03:07:19;;;;;;;3.63;0.77;;;14.90;99.90;;;;;;6201871;22;20011;-92
2022/10/24 03:10:14;;;;;;;3.42;0.85;;;14.90;99.90;;;;;;6227029;22;20113;-94
2022/10/24 03:12:42;;;;;;;1.75;0.60;;;14.90;99.90;;;;;;6226444;22;20071;-92
2022/10/24 03:15:08;;;;;;;2.80;0.70;;;14.90;99.90;;;;;;6226166;22;20012;-93
2022/10/24 03:17:34;;;;;;;2.80;0.65;;;14.90;99.90;;;;;;6250863;22;20016;-90
2022/10/24 03:20:02;;;;;;;2.90;0.93;;;14.90;99.90;;;;;;6249359;22;20010;-93
2022/10/24 03:22:28;;;;;;;2.85;0.70;;;14.90;99.90;;;;;;6252144;22;20761;-91
2022/10/24 03:24:54;;;;;;;3.33;0.90;;;14.90;99.90;;;;;;6226380;22;20011;-91
2022/10/24 03:27:19;;;;;;;1.55;0.60;;;14.90;99.90;;;;;;6226055;22;20091;-93
2022/10/24 03:29:48;;;;;;;2.55;0.70;;;14.90;99.90;;;;;;6226215;22;20026;-93
2022/10/24 03:32:13;;;;;;;2.65;0.63;;;14.90;99.90;;;;;;6225838;22;20063;-92
2022/10/24 03:34:39;;;;;;;0.93;0.50;;;14.90;99.90;;;;;;6226153;22;20054;-93
2022/10/24 03:37:08;;;;;;;2.40;0.65;;;14.90;99.90;;;;;;6225902;22;20023;-93
2022/10/24 03:39:34;;;;;;;2.50;0.85;;;14.90;99.90;;;;;;6225801;22;20136;-90
2022/10/24 03:41:59;;;;;;;3.17;0.80;;;15.00;99.90;;;;;;6225799;22;20433;-93
2022/10/24 03:44:25;;;;;;;3.33;0.90;;;15.00;99.90;;;;;;6226007;22;20019;-94
2022/10/24 03:46:51;;;;;;;3.10;0.70;;;15.00;99.90;;;;;;6226136;22;20022;-92
2022/10/24 03:49:17;;;;;;;2.00;0.50;;;15.00;99.90;;;;;;6225828;22;20012;-93
2022/10/24 03:51:42;;;;;;;1.60;0.70;;;15.10;99.90;;;;;;6226125;22;20027;-93
2022/10/24 03:54:09;;;;;;;3.53;0.80;;;15.10;99.90;;;;;;6200923;22;20733;-93
2022/10/24 03:56:36;;;;;;;3.28;1.13;;;15.10;99.90;;;;;;6225920;22;20019;-94
2022/10/24 03:59:01;;;;;;;2.80;0.93;;;15.10;99.90;;;;;;6225901;22;20020;-94
2022/10/24 04:01:27;;;;;;;2.60;0.80;;;15.10;99.90;;;;;;6200970;22;20022;-91
2022/10/24 04:03:53;;;;;;;3.25;1.05;;;15.10;99.90;;;;;;6225838;22;20445;-92
2022/10/24 04:06:18;;;;;;;2.65;0.88;;;15.20;99.90;;;;;;6225356;22;20020;-93
2022/10/24 04:08:44;;;;;;;1.20;0.60;;;15.10;99.90;;;;;;6225881;22;20137;-93
2022/10/24 04:11:10;;;;;;;3.87;0.83;;;15.20;99.90;;;;;;6200848;22;20340;-92
2022/10/24 04:13:36;;;;;;;4.43;1.05;;;15.20;99.90;;;;;;6225767;22;20250;-92
2022/10/24 04:16:02;;;;;;;2.58;0.82;;;15.20;99.90;;;;;;6225921;22;20018;-93
2022/10/24 04:18:28;;;;;;;3.53;0.70;;;15.20;99.90;;;;;;6225633;22;20015;-91
2022/10/24 04:20:53;;;;;;;5.63;1.05;;;15.20;99.90;;;;;;6225526;22;20020;-91
2022/10/24 04:23:19;;;;;;;2.30;0.82;;;15.20;99.90;;;;;;6200605;22;20012;-93
2022/10/24 04:25:45;;;;;;;1.90;0.50;;;15.20;99.90;;;;;;6225626;22;20349;-93
2022/10/24 04:28:10;;;;;;;3.08;0.80;;;15.20;99.90;;;;;;6225458;22;20066;-91
2022/10/24 04:30:36;;;;;;;2.70;0.90;;;15.20;99.90;;;;;;6200410;22;20078;-92
2022/10/24 04:33:02;;;;;;;2.60;0.80;;;15.20;99.90;;;;;;6225766;22;20439;-91
2022/10/24 04:35:28;;;;;;;1.60;0.70;;;15.20;99.90;;;;;;6225580;22;20019;-91
2022/10/24 04:37:53;;;;;;;3.17;0.90;;;15.20;99.90;;;;;;6225625;22;20486;-92
2022/10/24 04:40:19;;;;;;;3.15;0.70;;;15.10;99.90;;;;;;6225474;22;20019;-93
2022/10/24 04:42:45;;;;;;;3.90;1.08;;;15.10;99.90;;;;;;6225394;22;20019;-92
2022/10/24 04:45:11;;;;;;;1.70;0.70;;;15.10;99.90;;;;;;6200425;22;20081;-93
2022/10/24 04:47:36;;;;;;;4.13;0.82;;;15.10;99.90;;;;;;6225614;22;20066;-94
2022/10/24 04:50:03;;;;;;;1.40;0.55;;;15.10;99.90;;;;;;6225398;22;20016;-92
2022/10/24 04:52:29;;;;;;;3.20;0.70;;;15.10;99.90;;;;;;6225393;22;20018;-92
2022/10/24 04:55:10;;;;;;;2.63;0.68;;;15.00;99.90;;;;;;6225306;22;20054;-93
2022/10/24 04:57:36;;;;;;;2.60;1.13;;;15.00;99.90;;;;;;6225250;22;20467;-94
2022/10/24 05:00:02;;;;;;;2.72;0.88;;;15.00;99.90;;;;;;6225190;22;20016;-91
2022/10/24 05:02:28;;;;;;;;;;;14.90;99.90;;;;;;6201298;22;20015;-93
2022/10/24 05:04:54;;;;;;;2.95;0.70;;;14.90;99.90;;;;;;6225528;22;19942;-92
2022/10/24 05:07:20;;;;;;;3.10;0.70;;;14.90;99.90;;;;;;6200404;22;20065;-94
2022/10/24 05:09:46;;;;;;;2.17;0.80;;;14.90;99.90;;;;;;6200133;22;20008;-92
2022/10/24 05:12:12;;;;;;;1.63;0.57;;;14.90;99.90;;;;;;6225192;22;20058;-92
2022/10/24 05:14:38;;;;;;;2.10;0.70;;;14.90;99.90;;;;;;6225559;22;20016;-91
2022/10/24 05:17:07;;;;;;;3.63;1.05;;;14.80;99.90;;;;;;6225300;22;20099;-92
2022/10/24 05:19:33;;;;;;;3.28;0.70;;;14.80;99.90;;;;;;6200919;22;20022;-93
2022/10/24 05:22:01;;;;;;;4.03;0.75;;;14.80;99.90;;;;;;6225872;22;20094;-94
2022/10/24 08:40:56;;;;;;;2.78;0.40;;;16.10;99.90;;;;;;6308260;22;20019;-94
2022/10/24 08:43:36;;;;;;;2.30;0.55;;;16.10;99.90;;;;;;6256158;22;20027;-91
2022/10/24 09:03:21;;;;;;;2.10;0.40;;;16.10;99.90;;;;;;6132060;22;20072;-94
2022/10/24 09:05:55;;;;;;;1.63;0.30;;;16.10;99.90;;;;;;6185957;22;20012;-93
2022/10/24 09:08:51;;;;;;;5.82;0.40;;;16.20;99.90;;;;;;6227234;22;20023;-94
2022/10/24 09:32:25;;;;;;;2.13;0.40;;;16.20;99.90;;;;;;6266711;22;20070;-94
2022/10/24 09:34:48;;;;;;;;;;;16.10;99.90;;;;;;6248918;22;20448;-91
2022/10/24 09:38:10;;;;;;;2.30;0.40;;;16.10;99.90;;;;;;6225635;22;19915;-93
2022/10/24 09:40:56;;;;;;;5.50;0.40;;;16.00;99.90;;;;;;6092193;22;20104;-92
2022/10/24 09:43:34;;;;;;;1.92;0.38;;;16.10;99.90;;;;;;6225410;22;20016;-91
2022/10/24 09:46:43;;;;;;;1.33;0.28;;;16.10;99.90;;;;;;6225922;22;20012;-93
2022/10/24 10:28:37;;;;;;;1.95;0.30;;;16.50;99.90;;;;;;6243788;22;20020;-93
2022/10/24 10:31:04;;;;;;;2.50;0.47;;;16.50;99.90;;;;;;6170315;23;20035;-91
2022/10/24 23:36:36;;;;;;;7.38;2.05;;;13.10;99.90;;;;;;6308708;22;20359;-93
